CD22 weather

North Suburban Medical Center Heliport
Thornton, Colorado, United States

Public forecast

Using degrees Fahrenheit for public forecast. Weather courtesy of forecast.io.

METAR (pilot weather report)

Closest report is Rocky Mountain Metropolitan Airport, 6.7 nm (12.3 km) WNW. Retrieved 2019/04/25 08:12 UTC (0 seconds ago):

KBJC 250812Z AUTO 36016G26KT 10SM OVC014 08/05 A3013 RMK AO2

TAF (pilot weather forecast)

Closest forecast is Rocky Mountain Metropolitan Airport, 6.7 nm (12.3 km) WNW. Retrieved 2019/04/25 06:34 UTC (2 hours ago):

TAF KBJC 250532Z 2506/2606 29012KT P6SM FEW140 FM250630 02018G30KT P6SM VCSH SCT070 BKN110 FM250800 01014G24KT P6SM SCT030 BKN090 FM250900 03012KT P6SM VCSH SCT007 OVC015 FM251400 34010KT P6SM SCT015 BKN045 FM251800 03008KT P6SM SCT050 FM260000 VRB05KT P6SM FEW050 SCT220 FM260400 25006KT P6SM SCT220